Time;durP1;ratioP1;P1;durP2;ratioP2;P2;SDS_P1;SDS_P2;PMS_P1;PMS_P2;Temp;Humidity;BMP_temperature;BMP_pressure;BME280_temperature;BME280_humidity;BME280_pressure;Samples;Min_cycle;Max_cycle;Signal;HPM_P1;HPM_P2
2021/06/21 00:00:13;;;;;;;7.90;6.25;;;;;;;20.43;63.57;98048.53;262346;1090;21585;-73
2021/06/21 00:05:23;;;;;;;5.73;5.13;;;;;;;20.33;64.20;98045.30;262632;1090;22782;-72
2021/06/21 00:10:47;;;;;;;6.83;6.23;;;;;;;20.26;64.60;98042.51;262352;1090;22867;-72
2021/06/21 00:16:08;;;;;;;8.00;7.03;;;;;;;20.18;65.08;98038.91;262649;1088;22834;-73
2021/06/21 00:21:24;;;;;;;6.40;5.80;;;;;;;20.16;66.04;98040.42;261801;1089;22800;-73
2021/06/21 00:26:31;;;;;;;7.77;7.07;;;;;;;20.15;66.42;98028.01;262315;1088;26072;-73
2021/06/21 00:31:40;;;;;;;7.35;6.60;;;;;;;20.14;66.28;98026.44;261808;1089;22787;-73
2021/06/21 00:37:08;;;;;;;7.33;6.73;;;;;;;20.09;66.16;98019.39;262357;1090;22786;-73
2021/06/21 00:42:26;;;;;;;8.07;7.27;;;;;;;20.05;66.53;98004.98;262686;1089;22792;-72
2021/06/21 00:47:29;;;;;;;9.30;8.40;;;;;;;20.03;66.99;98001.05;262453;1090;22790;-73
2021/06/21 00:52:35;;;;;;;10.75;7.60;;;;;;;19.98;67.19;98002.17;262648;1090;26397;-72
2021/06/21 00:57:42;;;;;;;11.47;8.90;;;;;;;19.96;67.50;97999.03;262336;1089;22793;-73
2021/06/21 01:02:50;;;;;;;9.25;8.45;;;;;;;19.93;67.65;98002.48;262287;1090;22867;-72
2021/06/21 01:08:35;;;;;;;9.10;7.77;;;;;;;19.91;67.72;97986.56;262711;1090;25848;-73
2021/06/21 01:13:48;;;;;;;9.70;8.80;;;;;;;19.88;68.23;97981.87;261805;1090;28643;-73
2021/06/21 01:19:17;;;;;;;9.00;8.20;;;;;;;19.85;68.10;97982.58;261822;1090;26289;-72
2021/06/21 01:25:25;;;;;;;8.33;6.80;;;;;;;19.76;68.47;97979.34;262715;1089;22864;-73
2021/06/21 01:31:34;;;;;;;9.40;8.40;;;;;;;19.70;68.84;97961.78;261749;1090;22823;-73
2021/06/21 01:37:01;;;;;;;8.80;8.00;;;;;;;19.64;68.99;97967.56;261720;1092;27647;-73
2021/06/21 01:42:12;;;;;;;9.60;7.50;;;;;;;19.62;69.19;97964.41;261976;1090;22785;-72
2021/06/21 01:47:31;;;;;;;9.75;7.85;;;;;;;19.62;69.58;97961.70;261934;1093;24481;-72
2021/06/21 01:52:41;;;;;;;8.20;7.10;;;;;;;19.63;70.06;97957.07;261885;1090;26301;-73
2021/06/21 01:57:59;;;;;;;9.37;8.43;;;;;;;19.64;69.91;97942.31;261822;1090;27008;-73
2021/06/21 02:03:19;;;;;;;9.17;8.30;;;;;;;19.60;70.38;97945.00;261850;1089;22821;-73
2021/06/21 02:08:38;;;;;;;10.40;8.07;;;;;;;19.53;69.93;97961.21;262521;1090;22805;-73
2021/06/21 02:13:44;;;;;;;8.80;7.70;;;;;;;19.46;70.16;97961.09;262639;1088;22810;-73
2021/06/21 02:18:53;;;;;;;10.57;7.47;;;;;;;19.39;70.46;97950.94;262754;1090;24187;-73
2021/06/21 02:24:01;;;;;;;10.20;9.20;;;;;;;19.38;70.79;97948.59;261959;1090;24072;-72
2021/06/21 02:29:32;;;;;;;8.33;7.53;;;;;;;19.40;71.07;97946.27;262474;1089;22781;-73
2021/06/21 02:34:38;;;;;;;10.53;9.43;;;;;;;19.35;71.07;97936.52;261853;1088;22782;-72
2021/06/21 02:39:48;;;;;;;12.87;10.10;;;;;;;19.29;71.04;97929.83;262696;1089;22785;-72
2021/06/21 02:44:52;;;;;;;12.23;9.70;;;;;;;19.23;70.97;97936.73;262355;1089;22934;-73
2021/06/21 02:50:01;;;;;;;11.95;9.30;;;;;;;19.18;71.49;97945.19;262013;1088;23421;-73
2021/06/21 02:55:33;;;;;;;13.90;9.40;;;;;;;19.20;71.60;97938.25;261720;1090;22793;-72
2021/06/21 03:00:49;;;;;;;12.07;10.77;;;;;;;19.25;72.01;97940.66;261864;1090;26572;-73
2021/06/21 03:06:12;;;;;;;11.50;10.30;;;;;;;19.29;71.80;97946.12;262695;1089;23265;-72
2021/06/21 03:11:51;;;;;;;13.15;10.35;;;;;;;19.33;71.79;97955.09;262366;1089;24362;-74
2021/06/21 03:17:57;;;;;;;10.23;9.23;;;;;;;19.42;72.11;97952.91;262451;1090;22927;-74
2021/06/21 03:23:12;;;;;;;10.93;9.83;;;;;;;19.79;72.32;97965.02;262413;1090;22786;-72
2021/06/21 03:29:06;;;;;;;11.30;10.17;;;;;;;20.21;71.42;97960.48;261786;1090;22950;-73
2021/06/21 03:34:30;;;;;;;11.03;10.00;;;;;;;20.62;71.20;97953.12;262308;1090;22877;-73
2021/06/21 03:39:47;;;;;;;11.75;10.05;;;;;;;21.17;70.71;97957.84;262686;1090;25887;-73
2021/06/21 03:45:01;;;;;;;10.53;9.53;;;;;;;21.64;69.70;97974.50;262690;1089;22769;-73
2021/06/21 03:50:07;;;;;;;10.85;9.75;;;;;;;22.15;68.92;97980.92;262357;1089;22822;-72
2021/06/21 03:55:29;;;;;;;11.00;10.05;;;;;;;22.73;68.12;97975.59;262303;1090;26455;-76
2021/06/21 04:01:05;;;;;;;11.70;10.50;;;;;;;23.35;66.79;97979.89;262734;1090;23411;-73
2021/06/21 04:06:30;;;;;;;;;;;;;;;;;;;;;
2021/06/21 04:12:01;;;;;;;11.60;10.50;;;;;;;23.94;64.39;97973.10;262664;1089;22788;-73
2021/06/21 04:17:11;;;;;;;11.05;9.95;;;;;;;23.61;63.65;97963.42;262652;1089;22786;-72
2021/06/21 04:22:22;;;;;;;12.55;11.28;;;;;;;23.17;63.83;97968.22;262693;1090;22886;-74
2021/06/21 04:27:35;;;;;;;12.07;11.03;;;;;;;22.89;64.65;97967.03;261920;1090;25908;-75
2021/06/21 04:32:39;;;;;;;10.95;9.85;;;;;;;22.70;65.30;97974.41;262766;1089;22804;-73
2021/06/21 04:38:08;;;;;;;;;;;;;;;;;;;;;
2021/06/21 04:44:18;;;;;;;13.90;10.63;;;;;;;22.52;66.75;97968.16;262218;1089;22806;-71
2021/06/21 04:49:38;;;;;;;14.15;10.08;;;;;;;22.51;66.80;97975.58;262403;1090;22860;-73
2021/06/21 04:54:48;;;;;;;12.85;10.88;;;;;;;22.56;67.07;97986.09;262665;1090;25999;-73
2021/06/21 04:59:51;;;;;;;9.73;8.75;;;;;;;22.68;67.04;97984.19;262691;1090;22819;-72
2021/06/21 05:04:58;;;;;;;11.37;8.73;;;;;;;22.86;67.15;97995.09;262472;1090;22778;-73
2021/06/21 05:10:13;;;;;;;11.57;8.70;;;;;;;23.05;66.70;97991.97;262300;1089;24793;-73
2021/06/21 05:15:22;;;;;;;9.80;8.80;;;;;;;23.27;66.51;98000.20;262396;1090;25996;-74
2021/06/21 05:20:54;;;;;;;10.18;8.65;;;;;;;23.45;65.97;98002.91;262703;1090;22902;-73
2021/06/21 05:26:47;;;;;;;11.28;8.95;;;;;;;23.59;65.09;98002.09;262601;1090;22870;-73
2021/06/21 05:32:04;;;;;;;10.50;8.90;;;;;;;23.80;64.34;97997.72;261843;1088;22867;-72
2021/06/21 05:37:24;;;;;;;11.25;9.88;;;;;;;23.98;64.57;97982.07;262825;1089;22940;-72
2021/06/21 05:42:30;;;;;;;10.23;9.23;;;;;;;24.15;64.14;97990.57;262365;1090;27705;-72
2021/06/21 05:47:36;;;;;;;9.63;8.55;;;;;;;24.36;63.60;97993.21;263061;1089;22785;-72
2021/06/21 05:52:44;;;;;;;11.83;9.63;;;;;;;24.62;63.31;97995.81;263425;1090;22787;-72
2021/06/21 05:57:53;;;;;;;9.77;8.13;;;;;;;24.78;63.16;97993.36;262646;1090;22780;-73
2021/06/21 06:02:58;;;;;;;9.65;8.68;;;;;;;24.90;62.61;97990.14;263258;1089;22791;-72
2021/06/21 06:08:17;;;;;;;12.55;9.03;;;;;;;25.10;62.73;97978.63;263936;1089;22835;-72
2021/06/21 06:13:41;;;;;;;9.35;8.50;;;;;;;25.36;62.82;97981.93;263553;1088;22829;-72
2021/06/21 06:19:10;;;;;;;;;;;;;;;25.59;61.56;97984.81;264579;1089;22785;-72
2021/06/21 06:24:25;;;;;;;11.67;8.77;;;;;;;25.81;61.05;97987.30;262810;1088;21601;-72
2021/06/21 06:29:34;;;;;;;12.20;9.45;;;;;;;26.04;60.88;97978.44;263475;1089;22886;-71
2021/06/21 06:34:47;;;;;;;10.47;9.43;;;;;;;26.29;60.04;97991.06;263501;1089;22940;-72
2021/06/21 06:39:51;;;;;;;10.93;9.75;;;;;;;26.46;59.47;97984.53;263384;1089;23081;-72
2021/06/21 06:45:17;;;;;;;12.03;9.43;;;;;;;26.59;59.32;97981.98;263225;1089;22770;-72
2021/06/21 06:50:25;;;;;;;10.35;9.40;;;;;;;26.76;58.65;97976.66;263271;1089;22833;-73
2021/06/21 07:02:22;;;;;;;10.55;9.53;;;;;;;27.18;57.55;97992.86;262861;1090;22758;-72
2021/06/21 07:08:13;;;;;;;10.28;9.28;;;;;;;27.45;57.76;97990.03;262765;1090;22786;-73
2021/06/21 07:13:25;;;;;;;11.63;10.10;;;;;;;27.64;57.24;97986.53;262974;1089;22798;-73
2021/06/21 07:18:39;;;;;;;10.70;9.70;;;;;;;27.80;56.25;97994.09;262274;1089;23367;-72
2021/06/21 07:23:52;;;;;;;11.05;10.08;;;;;;;27.94;56.07;97995.78;263089;1089;22785;-73
2021/06/21 07:29:26;;;;;;;10.98;9.48;;;;;;;28.15;55.60;98000.09;263252;1090;22787;-74
2021/06/21 07:34:31;;;;;;;11.70;10.10;;;;;;;28.27;54.80;98003.39;263562;1090;22785;-72
2021/06/21 07:39:59;;;;;;;11.18;10.00;;;;;;;28.39;54.40;98005.48;263031;1090;22814;-72
2021/06/21 07:45:47;;;;;;;;;;;;;;;;;;;;;
2021/06/21 07:58:08;;;;;;;10.93;9.18;;;;;;;28.98;52.41;98000.22;262051;1090;22806;-73
2021/06/21 08:03:53;;;;;;;;;;;;;;;;;;;;;
2021/06/21 08:09:49;;;;;;;11.25;10.08;;;;;;;29.44;51.51;97995.53;263401;1089;23372;-72
2021/06/21 08:15:42;;;;;;;9.75;8.65;;;;;;;29.63;50.70;97987.53;262737;1090;22937;-73
2021/06/21 08:21:39;;;;;;;10.38;9.48;;;;;;;29.74;50.53;97988.01;262963;1089;22809;-73
2021/06/21 08:27:23;;;;;;;9.85;8.85;;;;;;;29.93;49.81;97989.09;262903;1089;22858;-72
2021/06/21 08:33:02;;;;;;;9.88;8.98;;;;;;;30.12;49.58;97984.61;262906;1090;23571;-72
2021/06/21 08:38:39;;;;;;;;;;;;;;;30.33;48.80;97985.16;263090;1090;22890;-73
2021/06/21 08:44:17;;;;;;;9.90;9.00;;;;;;;30.41;48.43;97991.25;263135;1089;21461;-73
2021/06/21 08:49:53;;;;;;;10.10;9.08;;;;;;;30.49;48.34;97981.55;262304;1090;23855;-73
2021/06/21 08:55:39;;;;;;;10.08;9.28;;;;;;;30.65;47.64;97981.41;263732;1088;22804;-72
2021/06/21 09:08:53;;;;;;;9.45;8.65;;;;;;;30.74;47.46;97978.00;266682;1089;23138;-72
2021/06/21 09:15:34;;;;;;;10.23;9.33;;;;;;;30.94;46.61;97971.44;263019;1090;22820;-72
2021/06/21 09:36:09;;;;;;;10.18;9.28;;;;;;;31.63;45.93;97965.13;262215;1090;25993;-73
2021/06/21 10:39:14;;;;;;;10.13;9.23;;;;;;;32.52;42.65;97924.19;262802;1090;25996;-73
2021/06/21 10:45:58;;;;;;;9.18;8.48;;;;;;;32.86;42.17;97913.34;263248;1089;22779;-72
2021/06/21 10:53:18;;;;;;;9.40;8.60;;;;;;;32.88;40.78;97908.09;262529;1090;25989;-72
2021/06/21 10:58:59;;;;;;;9.80;8.88;;;;;;;32.71;40.57;97904.84;263304;1089;22959;-73
2021/06/21 11:04:59;;;;;;;10.03;9.13;;;;;;;32.88;40.63;97897.00;263849;1088;22829;-73
2021/06/21 11:10:40;;;;;;;8.95;8.25;;;;;;;32.75;39.64;97902.69;262777;1089;25369;-73
2021/06/21 11:16:41;;;;;;;10.28;9.43;;;;;;;32.36;39.72;97891.98;262759;1090;25185;-72
2021/06/21 11:23:45;;;;;;;8.60;7.88;;;;;;;32.30;39.86;97890.27;263089;1088;22761;-73
2021/06/21 11:36:28;;;;;;;9.05;8.35;;;;;;;33.15;39.11;97873.29;262237;1088;22869;-71
2021/06/21 11:42:54;;;;;;;8.80;8.00;;;;;;;33.62;38.08;97865.66;262559;1090;22940;-71
2021/06/21 11:48:11;;;;;;;11.40;8.43;;;;;;;33.84;37.66;97865.47;263021;1089;25895;-71
2021/06/21 11:54:30;;;;;;;7.68;7.18;;;;;;;33.99;36.88;97862.80;263015;1090;28496;-72
2021/06/21 12:01:00;;;;;;;7.55;7.05;;;;;;;34.15;36.26;97872.73;262872;1089;22751;-73
2021/06/21 12:07:08;;;;;;;11.75;7.13;;;;;;;33.84;35.61;97855.12;262472;1089;22799;-72
2021/06/21 12:19:58;;;;;;;9.10;8.30;;;;;;;33.66;35.82;97839.27;262986;1090;24061;-72
2021/06/21 12:26:03;;;;;;;8.05;7.35;;;;;;;33.76;35.52;97842.80;261961;1090;25858;-72
2021/06/21 12:32:24;;;;;;;8.65;7.78;;;;;;;33.79;34.69;97844.67;262679;1089;23351;-72
2021/06/21 12:39:40;;;;;;;8.08;7.43;;;;;;;33.89;34.52;97832.27;262733;1090;22934;-71
2021/06/21 12:45:29;;;;;;;;;;;;;;;;;;;;;
2021/06/21 12:51:45;;;;;;;8.60;7.90;;;;;;;34.10;34.02;97826.93;262158;1090;22786;-72
2021/06/21 13:04:19;;;;;;;9.13;8.33;;;;;;;34.18;33.93;97810.66;262127;1089;26261;-72
2021/06/21 13:15:59;;;;;;;;;;;;;;;;;;;;;
2021/06/21 13:22:09;;;;;;;7.88;7.28;;;;;;;34.19;32.36;97790.73;262966;1090;26181;-71
2021/06/21 13:27:28;;;;;;;8.08;7.38;;;;;;;34.08;32.18;97788.51;262607;1090;22846;-71
2021/06/21 13:33:16;;;;;;;7.78;7.18;;;;;;;34.10;32.60;97793.59;262976;1089;22946;-73
2021/06/21 13:39:02;;;;;;;6.85;6.35;;;;;;;34.13;32.52;97781.52;262899;1089;22768;-71
2021/06/21 13:44:46;;;;;;;;;;;;;;;;;;;;;
2021/06/21 13:50:54;;;;;;;7.15;6.53;;;;;;;34.14;32.14;97796.95;262783;1090;22937;-72
2021/06/21 13:56:43;;;;;;;7.63;7.00;;;;;;;34.27;32.10;97797.47;263089;1089;22856;-72
2021/06/21 14:02:04;;;;;;;7.48;6.80;;;;;;;34.21;31.43;97793.03;263610;1090;22813;-71
2021/06/21 14:07:45;;;;;;;7.25;6.75;;;;;;;34.21;32.43;97793.82;263072;1089;24490;-73
2021/06/21 14:13:27;;;;;;;7.93;7.13;;;;;;;34.34;32.03;97796.39;262863;1090;22786;-72
2021/06/21 14:19:06;;;;;;;7.43;6.73;;;;;;;34.51;31.12;97799.50;262733;1090;22785;-72
2021/06/21 14:24:44;;;;;;;7.75;7.05;;;;;;;34.58;31.38;97813.03;261770;1090;22876;-73
2021/06/21 14:30:24;;;;;;;;;;;;;;;;;;;;;
2021/06/21 14:36:09;;;;;;;8.53;7.68;;;;;;;34.72;31.44;97808.00;262750;1090;22786;-73
2021/06/21 14:41:31;;;;;;;;;;;;;;;;;;;;;
2021/06/21 14:47:49;;;;;;;9.60;7.30;;;;;;;34.85;31.39;97807.75;262534;1088;22969;-73
2021/06/21 14:53:29;;;;;;;8.25;7.65;;;;;;;34.62;31.44;97801.73;261812;1090;24326;-73
2021/06/21 14:59:16;;;;;;;7.93;7.33;;;;;;;34.55;32.35;97805.65;262472;1090;22792;-72
2021/06/21 15:05:21;;;;;;;;;;;;;;;;;;;;;
2021/06/21 15:11:07;;;;;;;8.00;7.33;;;;;;;34.69;31.08;97808.95;262777;1090;22786;-71
2021/06/21 15:16:36;;;;;;;8.13;7.43;;;;;;;34.65;31.46;97814.69;262767;1089;22794;-73
2021/06/21 15:22:51;;;;;;;7.93;7.35;;;;;;;34.64;31.67;97815.16;262622;1089;22910;-73
2021/06/21 15:28:37;;;;;;;8.58;7.83;;;;;;;34.62;31.48;97805.28;262721;1089;25874;-72
2021/06/21 15:34:01;;;;;;;8.25;7.40;;;;;;;34.61;32.19;97820.45;261872;1090;22841;-72
2021/06/21 15:39:15;;;;;;;7.48;6.88;;;;;;;34.54;31.38;97815.23;262392;1090;22805;-73
2021/06/21 15:45:46;;;;;;;7.43;6.83;;;;;;;34.42;31.90;97819.05;261985;1090;22805;-72
2021/06/21 15:51:03;;;;;;;8.33;6.90;;;;;;;34.25;32.72;97816.65;262747;1090;26570;-73
2021/06/21 15:57:23;;;;;;;;;;;;;;;;;;;;;
2021/06/21 16:03:16;;;;;;;7.08;6.48;;;;;;;33.97;32.58;97835.48;262450;1089;26246;-72
2021/06/21 16:08:30;;;;;;;7.68;7.03;;;;;;;33.80;32.70;97828.77;262446;1090;25992;-72
2021/06/21 16:14:43;;;;;;;8.23;7.50;;;;;;;33.62;32.70;97815.69;261882;1090;22788;-73
2021/06/21 16:20:44;;;;;;;;;;;;;;;;;;;;;
2021/06/21 16:26:28;;;;;;;;;;;;;;;;;;;;;
2021/06/21 16:32:37;;;;;;;7.40;6.90;;;;;;;33.17;33.00;97826.42;262800;1089;22937;-72
2021/06/21 16:38:04;;;;;;;8.33;7.30;;;;;;;33.09;33.21;97829.52;261935;1090;23411;-71
2021/06/21 16:45:01;;;;;;;8.33;7.63;;;;;;;33.03;33.34;97844.47;262626;1090;22767;-74
2021/06/21 16:50:37;;;;;;;8.40;7.68;;;;;;;32.90;33.78;97839.84;261790;1090;23076;-72
2021/06/21 16:57:20;;;;;;;8.35;7.65;;;;;;;32.75;33.78;97844.47;261814;1089;22809;-71
2021/06/21 17:04:12;;;;;;;9.80;9.00;;;;;;;32.51;35.10;97838.73;262684;1089;22782;-72
2021/06/21 17:10:54;;;;;;;11.05;10.05;;;;;;;32.36;36.31;97830.23;261956;1090;22918;-73
2021/06/21 17:16:32;;;;;;;12.00;10.80;;;;;;;32.08;36.79;97843.98;262661;1089;25925;-72
2021/06/21 17:22:17;;;;;;;11.60;10.47;;;;;;;31.69;38.92;97860.13;262484;1089;23765;-73
2021/06/21 17:28:12;;;;;;;;;;;;;;;;;;;;;
2021/06/21 17:33:56;;;;;;;;;;;;;;;;;;;;;
2021/06/21 17:40:44;;;;;;;11.35;8.75;;;;;;;30.03;42.43;97904.41;261884;1090;22873;-72
2021/06/21 17:46:56;;;;;;;9.78;8.08;;;;;;;29.49;44.29;97931.55;262731;1089;22799;-72
2021/06/21 17:53:19;;;;;;;8.65;7.20;;;;;;;28.83;44.31;97939.92;262617;1090;26773;-73
2021/06/21 17:59:28;;;;;;;;;;;;;;;;;;;;;
2021/06/21 18:11:44;;;;;;;12.18;6.68;;;;;;;27.69;45.59;97952.27;261898;1089;26027;-71
2021/06/21 18:17:21;;;;;;;;;;;;;;;;;;;;;
2021/06/21 18:49:41;;;;;;;;;;;;;;;;;;;;;
2021/06/21 19:03:14;;;;;;;;;;;;;;;;;;;;;
2021/06/21 19:17:08;;;;;;;9.40;8.45;;;;;;;25.74;52.14;97924.31;261464;1090;22818;-73
2021/06/21 19:24:13;;;;;;;12.93;9.45;;;;;;;25.56;52.50;97913.55;261542;1090;22846;-71
2021/06/21 19:30:10;;;;;;;9.88;8.85;;;;;;;25.39;52.66;97905.16;262307;1088;27715;-72
2021/06/21 19:36:07;;;;;;;;;;;;;;;;;;;;;
2021/06/21 19:42:48;;;;;;;;;;;;;;;;;;;;;
2021/06/21 20:02:30;;;;;;;10.98;9.88;;;;;;;24.91;54.63;97958.81;262704;1090;22810;-71
2021/06/21 20:08:04;;;;;;;10.15;9.15;;;;;;;24.80;54.59;97958.13;262709;1089;22837;-73
2021/06/21 20:14:40;;;;;;;;;;;;;;;;;;;;;
2021/06/21 20:20:48;;;;;;;9.68;8.68;;;;;;;24.35;55.90;97956.06;262304;1088;22790;-71
2021/06/21 20:26:15;;;;;;;;;;;;;;;;;;;;;
2021/06/21 20:31:52;;;;;;;9.13;8.23;;;;;;;24.12;56.78;97947.59;262378;1090;22950;-73
2021/06/21 20:38:10;;;;;;;10.13;7.88;;;;;;;23.94;56.98;97940.28;262052;1090;26703;-72
2021/06/21 20:45:04;;;;;;;9.40;7.88;;;;;;;23.82;57.35;97946.16;262606;1089;22816;-74
2021/06/21 20:51:47;;;;;;;8.38;7.38;;;;;;;23.72;57.48;97943.06;262343;1090;22794;-73
2021/06/21 20:57:51;;;;;;;13.75;8.40;;;;;;;23.61;58.36;97936.86;262247;1088;27577;-72
2021/06/21 21:02:55;;;;;;;8.85;8.05;;;;;;;23.52;59.12;97939.25;262703;1090;27064;-75
2021/06/21 21:08:02;;;;;;;9.08;8.18;;;;;;;23.39;59.07;97938.88;262429;1089;22877;-73
2021/06/21 21:13:18;;;;;;;8.78;7.88;;;;;;;23.31;59.43;97929.13;262199;1090;22834;-71
2021/06/21 21:18:54;;;;;;;10.05;7.28;;;;;;;23.26;59.54;97915.89;262509;1090;22782;-72
2021/06/21 21:25:18;;;;;;;9.00;8.10;;;;;;;23.19;59.74;97911.99;261898;1090;23417;-73
2021/06/21 21:30:47;;;;;;;12.80;8.45;;;;;;;23.15;59.81;97910.45;262545;1090;22862;-73
2021/06/21 21:37:27;;;;;;;;;;;;;;;;;;;;;
2021/06/21 21:44:34;;;;;;;;;;;;;;;;;;;;;
2021/06/21 21:51:03;;;;;;;;;;;;;;;;;;;;;
2021/06/21 21:58:12;;;;;;;10.35;8.58;;;;;;;23.16;60.13;97868.31;261900;1090;22793;-72
2021/06/21 22:04:46;;;;;;;;;;;;;;;;;;;;;
2021/06/21 22:18:29;;;;;;;9.33;8.40;;;;;;;22.57;61.94;97877.73;262642;1090;22931;-72
2021/06/21 22:32:21;;;;;;;;;;;;;;;;;;;;;
2021/06/21 22:46:33;;;;;;;;;;;;;;;;;;;;;
2021/06/21 22:53:30;;;;;;;;;;;;;;;;;;;;;
2021/06/21 22:59:37;;;;;;;9.95;8.70;;;;;;;21.92;64.83;97898.66;261842;1088;23365;-73
2021/06/21 23:06:43;;;;;;;12.15;10.10;;;;;;;21.96;64.83;97896.72;261839;1090;26073;-73
2021/06/21 23:40:19;;;;;;;12.60;8.85;;;;;;;21.66;66.64;97935.95;262009;1090;22873;-74
2021/06/21 23:47:30;;;;;;;12.75;9.48;;;;;;;21.61;66.87;97922.69;261695;1090;22819;-73
